Borovsk, Russia
Current Conditions -  °F | °C
As of 9:30 PM on Friday 24 Oct 2014 (Local Time) from UUWW Reporting Station
Clear Clear  
Wind Chill: 13°   Ceiling: Unl
Heat Index: 19°   Visibility: 6mi
Dew Point: 14°   Wind: 4mph
Humidity: 80%   Direction: 360°N
Pressure: 30.59"   Gusts: NA
Location:  55.21°N, 36.49°E
Report Text: UUWW 241830Z 36002MPS 330V040 CAVOK M07/M10 Q1036 06190060NOSIG
Loading
Personal Weather Stations






























Interactive Weather Map
Tropical Storm Tracking
New forecast layout! Learn more

10-Day Weather Forecast

Advertisements
Track Severe Weather on mobile